Time;durP1;ratioP1;P1;durP2;ratioP2;P2;SDS_P1;SDS_P2;PMS_P1;PMS_P2;Temp;Humidity;BMP_temperature;BMP_pressure;BME280_temperature;BME280_humidity;BME280_pressure;Samples;Min_cycle;Max_cycle;Signal;HPM_P1;HPM_P2
2022/10/09 00:01:08;;;;;;;;;6.67;5.67;;;;;14.17;50.02;101936.91;4978952;28;45242;-69
2022/10/09 00:03:35;;;;;;;;;6.67;5.67;;;;;14.15;49.79;101937.03;4972673;28;45345;-70
2022/10/09 00:06:01;;;;;;;;;6.67;4.67;;;;;14.17;50.02;101932.41;4978757;28;45324;-70
2022/10/09 00:08:26;;;;;;;;;5.33;4.33;;;;;14.15;49.83;101945.06;4978470;28;45932;-69
2022/10/09 00:10:51;;;;;;;;;6.00;5.00;;;;;14.05;50.28;101911.28;4978567;28;45255;-69
2022/10/09 00:13:17;;;;;;;;;7.33;6.33;;;;;14.14;50.00;101919.31;4977041;28;45327;-68
2022/10/09 00:15:44;;;;;;;;;6.67;4.67;;;;;14.08;50.48;101927.06;4978728;28;45213;-69
2022/10/09 00:18:12;;;;;;;;;15.67;15.67;;;;;13.98;50.41;101921.66;4978059;28;46168;-69
2022/10/09 00:23:16;;;;;;;;;6.67;3.67;;;;;13.99;50.96;101929.53;5046569;23;45693;-73
2022/10/09 00:25:53;;;;;;;;;6.33;4.00;;;;;13.91;50.62;101926.72;4959894;28;45314;-74
2022/10/09 00:28:20;;;;;;;;;4.00;4.00;;;;;13.84;50.84;101927.41;4957431;28;47258;-74
2022/10/09 00:30:45;;;;;;;;;1.67;1.67;;;;;13.86;51.49;101923.63;4958839;28;45473;-73
2022/10/09 00:33:10;;;;;;;;;2.67;2.67;;;;;13.67;50.97;101891.50;4958988;28;45336;-73
2022/10/09 00:35:40;;;;;;;;;7.00;6.00;;;;;13.67;51.55;101918.22;4958040;28;45227;-72
2022/10/09 00:38:06;;;;;;;;;4.33;3.00;;;;;13.72;51.51;101918.66;4958838;28;47694;-72
2022/10/09 00:40:32;;;;;;;;;5.00;4.00;;;;;13.47;51.96;101893.25;4957253;28;45505;-72
2022/10/09 00:42:58;;;;;;;;;6.00;5.00;;;;;13.62;51.92;101921.31;4958774;28;45358;-73
2022/10/09 00:45:24;;;;;;;;;4.67;4.33;;;;;13.26;51.64;101865.75;4957850;28;45424;-73
2022/10/09 00:48:02;;;;;;;;;9.33;8.67;;;;;13.36;52.11;101877.31;4957480;28;47502;-73
2022/10/09 00:50:44;;;;;;;;;6.00;5.00;;;;;13.50;51.99;101909.00;4957130;28;45599;-71
2022/10/09 00:53:14;;;;;;;;;4.00;3.33;;;;;13.56;52.14;101910.28;4958842;28;45468;-73
2022/10/09 00:55:40;;;;;;;;;7.00;7.00;;;;;13.54;52.06;101907.75;4957266;28;45517;-74
2022/10/09 00:58:07;;;;;;;;;3.00;3.00;;;;;13.33;51.56;101867.75;4958278;28;46456;-70
2022/10/09 01:00:32;;;;;;;;;2.67;2.67;;;;;13.64;51.29;101924.69;4958170;28;45414;-72
2022/10/09 01:02:58;;;;;;;;;4.33;2.67;;;;;13.74;51.67;101930.03;4957275;28;45544;-71
2022/10/09 01:05:43;;;;;;;;;7.33;6.33;;;;;13.16;51.23;101822.09;4958620;28;45444;-73
2022/10/09 01:08:35;;;;;;;;;6.00;6.00;;;;;13.66;51.84;101917.38;4958339;28;46171;-73
2022/10/09 01:11:28;;;;;;;;;3.00;3.00;;;;;13.57;52.17;101906.63;4952770;28;45422;-72
2022/10/09 01:14:06;;;;;;;;;3.00;3.00;;;;;12.70;52.75;101764.72;4958627;28;45228;-72
2022/10/09 01:16:43;;;;;;;;;6.00;3.00;;;;;13.45;52.18;101899.72;4957180;28;45414;-73
2022/10/09 01:19:30;;;;;;;;;3.00;3.00;;;;;13.50;52.23;101887.63;4959018;28;45688;-72
2022/10/09 01:22:22;;;;;;;;;3.00;3.00;;;;;13.55;52.03;101887.22;4950309;28;45320;-71
2022/10/09 01:25:04;;;;;;;;;7.33;5.00;;;;;13.54;52.00;101897.06;4918068;28;45538;-72
2022/10/09 01:27:31;;;;;;;;;3.00;3.00;;;;;13.17;52.02;101824.63;4958370;28;45507;-73
2022/10/09 01:30:00;;;;;;;;;2.67;2.67;;;;;13.15;51.97;101823.06;4958116;28;45504;-72
2022/10/09 01:32:36;;;;;;;;;5.00;4.00;;;;;13.15;52.15;101828.41;4957942;28;45339;-72
2022/10/09 01:35:04;;;;;;;;;3.67;3.67;;;;;13.50;52.07;101879.63;4956457;28;45363;-72
2022/10/09 01:37:32;;;;;;;;;7.00;6.00;;;;;13.45;52.57;101879.19;4956654;28;45590;-73
2022/10/09 01:39:58;;;;;;;;;5.00;3.33;;;;;13.32;52.36;101849.19;4957581;28;45861;-70
2022/10/09 01:42:27;;;;;;;;;3.33;3.00;;;;;13.15;52.42;101807.06;4968304;28;46114;-71
2022/10/09 01:44:53;;;;;;;;;3.00;3.00;;;;;12.86;52.40;101761.56;4958269;28;45279;-73
2022/10/09 01:47:20;;;;;;;;;3.00;3.00;;;;;13.34;52.38;101825.84;4958109;28;45641;-72
2022/10/09 01:49:51;;;;;;;;;4.00;3.67;;;;;13.44;52.54;101842.78;4957558;28;46861;-71
2022/10/09 01:52:25;;;;;;;;;4.00;3.00;;;;;13.42;52.37;101847.41;4958311;28;45568;-74
2022/10/09 01:55:03;;;;;;;;;3.00;3.00;;;;;13.40;52.53;101835.97;4956152;28;45678;-74
2022/10/09 01:57:46;;;;;;;;;2.33;2.00;;;;;12.79;52.43;101750.56;4958240;28;45430;-73
2022/10/09 02:00:12;;;;;;;;;5.67;3.00;;;;;13.24;52.74;101822.31;4951901;28;45986;-72
2022/10/09 02:02:40;;;;;;;;;4.00;4.00;;;;;13.34;52.60;101829.38;4957960;28;45490;-71
2022/10/09 02:05:09;;;;;;;;;3.00;3.00;;;;;12.52;53.15;101678.28;4958081;28;45415;-73
2022/10/09 02:07:36;;;;;;;;;2.00;2.00;;;;;13.39;52.72;101826.28;4957898;28;45474;-71
2022/10/09 02:10:03;;;;;;;;;4.67;3.00;;;;;13.38;52.83;101821.91;4949589;28;46836;-73
2022/10/09 02:12:33;;;;;;;;;4.67;3.67;;;;;13.36;52.69;101822.06;4939960;28;45233;-71
2022/10/09 02:14:59;;;;;;;;;5.33;4.00;;;;;13.28;53.01;101805.88;4956397;28;45589;-72
2022/10/09 02:17:31;;;;;;;;;2.67;1.67;;;;;12.61;52.95;101699.66;4958697;28;45519;-74
2022/10/09 02:20:05;;;;;;;;;4.00;4.00;;;;;13.07;52.86;101773.88;4951525;28;47427;-72
2022/10/09 02:22:32;;;;;;;;;2.00;2.00;;;;;13.23;52.84;101807.28;4958765;28;45627;-72
2022/10/09 02:25:00;;;;;;;;;7.00;3.67;;;;;12.44;53.27;101677.13;4958205;28;45619;-73
2022/10/09 02:27:26;;;;;;;;;4.00;4.00;;;;;13.27;52.97;101812.22;4958825;28;45462;-71
2022/10/09 02:29:52;;;;;;;;;5.00;5.00;;;;;13.22;53.35;101795.75;4957219;28;46341;-73
2022/10/09 02:32:18;;;;;;;;;4.00;4.00;;;;;13.02;53.04;101768.09;4957498;28;45227;-71
2022/10/09 02:34:43;;;;;;;;;3.33;3.33;;;;;12.96;53.37;101762.44;4957389;28;45212;-72
2022/10/09 02:37:09;;;;;;;;;4.33;3.00;;;;;12.84;53.34;101742.19;4957396;28;45626;-74
2022/10/09 02:39:35;;;;;;;;;4.00;4.00;;;;;12.99;53.18;101768.34;4957059;28;46763;-72
2022/10/09 02:42:00;;;;;;;;;5.00;4.00;;;;;12.33;53.73;101653.22;4947773;28;46088;-72
2022/10/09 02:44:26;;;;;;;;;4.00;3.67;;;;;12.49;53.43;101685.56;4957196;28;45469;-72
2022/10/09 02:46:51;;;;;;;;;5.00;2.00;;;;;12.91;52.99;101764.69;4957069;28;45620;-71
2022/10/09 02:49:17;;;;;;;;;5.00;3.67;;;;;12.78;53.63;101732.88;4956939;28;46286;-71
2022/10/09 02:51:43;;;;;;;;;2.67;2.67;;;;;12.84;53.80;101761.72;4955740;28;46388;-71
2022/10/09 02:54:08;;;;;;;;;4.00;4.00;;;;;12.88;54.33;101781.81;4956979;28;45430;-71
2022/10/09 02:56:34;;;;;;;;;6.67;3.33;;;;;12.95;53.73;101793.63;4956824;28;45467;-71
2022/10/09 02:58:59;;;;;;;;;5.00;5.00;;;;;12.87;53.91;101764.09;4957291;28;47026;-71
2022/10/09 03:01:24;;;;;;;;;4.33;3.33;;;;;12.92;53.82;101772.53;4955788;28;46253;-71
2022/10/09 03:03:50;;;;;;;;;2.00;2.00;;;;;12.71;54.40;101759.25;4956948;28;45523;-72
2022/10/09 03:06:19;;;;;;;;;5.33;4.00;;;;;12.30;54.23;101682.81;4957449;28;45424;-71
2022/10/09 03:08:47;;;;;;;;;6.00;4.00;;;;;12.77;54.02;101761.38;4959480;28;45508;-74
2022/10/09 03:11:13;;;;;;;;;4.33;4.33;;;;;12.79;53.90;101775.44;4959615;28;45336;-74
2022/10/09 03:13:39;;;;;;;;;5.00;4.00;;;;;11.78;54.14;101596.66;4958743;28;45351;-73
2022/10/09 03:16:17;;;;;;;;;5.00;4.00;;;;;12.78;54.17;101765.72;4960006;28;45559;-71
2022/10/09 03:18:43;;;;;;;;;2.67;2.33;;;;;12.73;54.21;101759.13;4959881;28;46250;-72
2022/10/09 03:21:13;;;;;;;;;4.00;4.00;;;;;12.55;54.17;101726.03;4959685;28;45441;-72
2022/10/09 03:23:39;;;;;;;;;6.33;4.33;;;;;12.57;54.52;101740.06;4942759;28;45307;-72
2022/10/09 03:26:08;;;;;;;;;5.00;3.33;;;;;12.21;54.40;101686.25;4960235;28;45323;-72
2022/10/09 03:28:35;;;;;;;;;4.00;4.00;;;;;12.35;54.60;101717.06;4958545;28;47985;-73
2022/10/09 03:31:01;;;;;;;;;4.00;4.00;;;;;12.60;54.08;101748.66;4960482;28;45627;-73
2022/10/09 03:33:26;;;;;;;;;3.33;3.33;;;;;12.45;54.54;101713.50;4960163;28;45350;-72
2022/10/09 03:35:52;;;;;;;;;5.00;4.33;;;;;12.19;54.05;101672.22;4959749;28;45319;-72
2022/10/09 03:38:17;;;;;;;;;4.00;4.00;;;;;12.59;54.48;101732.78;4959786;28;46379;-73
2022/10/09 03:40:43;;;;;;;;;5.00;5.00;;;;;12.56;54.59;101744.56;4942537;28;45281;-71
2022/10/09 03:43:09;;;;;;;;;6.00;5.00;;;;;12.18;54.77;101676.69;4959527;28;45283;-72
2022/10/09 03:45:37;;;;;;;;;6.67;6.00;;;;;11.53;55.03;101576.56;4959988;28;45501;-72
2022/10/09 03:48:03;;;;;;;;;4.33;3.33;;;;;12.51;54.89;101741.44;4959659;28;45385;-72
2022/10/09 03:50:28;;;;;;;;;4.00;4.00;;;;;12.27;55.26;101717.75;4958451;28;46097;-72
2022/10/09 03:52:53;;;;;;;;;4.00;4.00;;;;;12.40;55.30;101733.50;4960166;28;45224;-72
2022/10/09 03:55:19;;;;;;;;;7.00;6.00;;;;;12.25;54.69;101698.38;4960434;28;45547;-70
2022/10/09 03:57:44;;;;;;;;;5.33;5.00;;;;;12.33;55.21;101717.22;4959601;28;45634;-72
2022/10/09 04:00:10;;;;;;;;;6.33;4.00;;;;;12.38;54.57;101720.31;4941325;28;57329;-73
2022/10/09 04:02:35;;;;;;;;;3.67;3.67;;;;;12.41;54.65;101714.75;4959797;28;45321;-73
2022/10/09 04:05:01;;;;;;;;;6.00;5.00;;;;;12.57;54.42;101734.72;4959675;28;45328;-73
2022/10/09 04:07:26;;;;;;;;;5.67;4.00;;;;;12.54;54.65;101737.66;4959151;28;45584;-74
2022/10/09 04:09:51;;;;;;;;;7.00;5.67;;;;;12.36;55.39;101727.59;4957852;28;45453;-72
2022/10/09 04:12:17;;;;;;;;;5.33;5.00;;;;;12.14;55.14;101690.44;4958965;28;45367;-72
2022/10/09 04:14:42;;;;;;;;;6.33;3.67;;;;;11.97;55.25;101667.88;4959528;28;45246;-71
2022/10/09 04:17:08;;;;;;;;;4.00;4.00;;;;;12.35;55.09;101731.25;4958676;28;54688;-72
2022/10/09 04:19:33;;;;;;;;;7.00;4.00;;;;;12.25;55.46;101706.38;4957716;28;45505;-72
2022/10/09 04:21:58;;;;;;;;;6.33;5.00;;;;;12.37;55.51;101728.44;4958784;28;45355;-72
2022/10/09 04:24:24;;;;;;;;;6.33;5.00;;;;;12.43;55.23;101734.13;4957463;28;45455;-74
2022/10/09 04:26:49;;;;;;;;;4.00;4.00;;;;;12.39;55.16;101738.00;4958029;28;48645;-74
2022/10/09 04:29:14;;;;;;;;;7.33;5.00;;;;;12.13;55.34;101708.25;4959281;28;45365;-71
2022/10/09 04:31:40;;;;;;;;;4.67;4.67;;;;;12.14;55.83;101698.44;4959652;28;45569;-74
2022/10/09 04:34:05;;;;;;;;;4.00;4.00;;;;;11.98;55.28;101680.22;4959092;28;45327;-71
2022/10/09 04:36:31;;;;;;;;;5.00;4.00;;;;;12.15;55.48;101708.13;4958583;28;45745;-74
2022/10/09 04:38:56;;;;;;;;;4.00;4.00;;;;;11.99;55.87;101691.72;4958854;28;45307;-71
2022/10/09 04:41:21;;;;;;;;;4.67;3.00;;;;;12.03;55.95;101703.84;4958699;28;45176;-72
2022/10/09 04:43:47;;;;;;;;;6.33;4.33;;;;;12.15;56.12;101719.63;4958735;28;45407;-72
2022/10/09 04:46:13;;;;;;;;;6.00;6.00;;;;;12.04;55.70;101710.88;4958528;28;45992;-71
2022/10/09 04:48:41;;;;;;;;;7.33;6.00;;;;;11.54;56.52;101618.19;4958354;28;45470;-69
2022/10/09 04:51:08;;;;;;;;;6.00;6.00;;;;;11.67;56.29;101647.31;4958161;28;45438;-73
2022/10/09 04:53:34;;;;;;;;;4.00;4.00;;;;;11.85;56.28;101691.09;4950910;28;45453;-73
2022/10/09 04:56:02;;;;;;;;;6.00;5.00;;;;;11.68;56.42;101672.97;4958696;28;46701;-72
2022/10/09 04:58:28;;;;;;;;;4.67;4.67;;;;;11.09;56.06;101569.63;4959961;28;45439;-73
2022/10/09 05:00:54;;;;;;;;;6.00;6.00;;;;;11.87;56.58;101709.63;4958086;28;45292;-70
2022/10/09 05:03:19;;;;;;;;;6.00;5.00;;;;;11.86;56.63;101716.75;4958122;28;45402;-73
2022/10/09 05:05:44;;;;;;;;;4.67;4.00;;;;;11.64;57.15;101671.56;4958330;28;46135;-72
2022/10/09 05:08:10;;;;;;;;;9.67;7.33;;;;;11.73;57.21;101694.75;4956848;28;45382;-74
2022/10/09 05:10:35;;;;;;;;;7.33;6.33;;;;;11.77;57.40;101704.16;4956925;28;45263;-72
2022/10/09 05:13:00;;;;;;;;;6.00;6.00;;;;;11.32;57.10;101644.91;4958745;28;45656;-74
2022/10/09 05:15:26;;;;;;;;;5.33;5.33;;;;;11.78;57.27;101705.88;4958127;28;45466;-71
2022/10/09 05:17:51;;;;;;;;;5.00;5.00;;;;;11.79;57.03;101699.56;4958401;28;45526;-72
2022/10/09 05:20:17;;;;;;;;;4.00;4.00;;;;;11.25;57.38;101612.66;4957683;28;45255;-74
2022/10/09 05:22:46;;;;;;;;;6.00;6.00;;;;;11.77;57.12;101714.81;4959313;28;45400;-72
2022/10/09 05:25:11;;;;;;;;;3.00;3.00;;;;;8.88;57.24;101234.28;4958086;28;45577;-75
2022/10/09 05:27:37;;;;;;;;;5.00;4.67;;;;;11.51;57.04;101657.56;4957735;28;45358;-73
2022/10/09 05:30:04;;;;;;;;;5.00;4.67;;;;;11.59;57.61;101668.41;4957812;28;45326;-73
2022/10/09 05:32:29;;;;;;;;;3.33;3.33;;;;;11.76;57.31;101691.81;4958119;28;45234;-72
2022/10/09 05:34:55;;;;;;;;;4.00;4.00;;;;;11.71;57.43;101699.34;4957605;28;46243;-71
2022/10/09 05:37:20;;;;;;;;;4.67;4.67;;;;;11.66;57.11;101690.91;4957742;28;45346;-74
2022/10/09 05:39:45;;;;;;;;;4.00;4.00;;;;;11.21;57.75;101640.50;4956629;28;45462;-72
2022/10/09 05:42:11;;;;;;;;;4.33;4.33;;;;;11.56;57.88;101689.97;4958281;28;45460;-72
2022/10/09 05:44:36;;;;;;;;;5.67;4.67;;;;;11.60;57.73;101691.41;4957865;28;45518;-71
2022/10/09 05:47:01;;;;;;;;;5.33;4.33;;;;;11.56;57.73;101700.63;4957848;28;45455;-74
2022/10/09 05:49:27;;;;;;;;;6.00;5.33;;;;;11.54;57.86;101705.22;4957837;28;45333;-71
2022/10/09 05:51:52;;;;;;;;;4.33;3.00;;;;;11.28;57.86;101644.34;4958041;28;45497;-70
2022/10/09 05:54:18;;;;;;;;;5.00;5.00;;;;;11.57;57.65;101686.34;4957652;28;45873;-73
2022/10/09 05:56:44;;;;;;;;;4.00;4.00;;;;;11.54;57.68;101678.59;4957594;28;45275;-71
2022/10/09 05:59:14;;;;;;;;;4.00;4.00;;;;;11.51;57.70;101670.88;4956767;28;45357;-70
2022/10/09 06:01:45;;;;;;;;;6.67;5.67;;;;;11.21;57.53;101621.88;4958329;28;45617;-74
2022/10/09 06:04:22;;;;;;;;;6.67;5.00;;;;;11.13;58.09;101618.97;4957880;28;46359;-73
2022/10/09 06:06:48;;;;;;;;;6.67;6.00;;;;;11.52;57.75;101678.72;4957596;28;45423;-72
2022/10/09 06:09:24;;;;;;;;;4.00;4.00;;;;;11.58;57.40;101669.38;4956756;28;47025;-71
2022/10/09 06:11:50;;;;;;;;;5.00;4.00;;;;;11.58;57.40;101664.03;4957728;28;45431;-70
2022/10/09 06:14:16;;;;;;;;;5.00;4.00;;;;;11.72;57.22;101674.41;4957496;28;45691;-72
2022/10/09 06:16:44;;;;;;;;;4.00;4.00;;;;;11.75;56.66;101676.81;4952140;28;45328;-73
2022/10/09 06:19:12;;;;;;;;;4.33;4.33;;;;;11.59;57.39;101663.06;4949711;28;45601;-73
2022/10/09 06:21:38;;;;;;;;;5.00;3.33;;;;;11.67;56.83;101681.09;4957440;28;45321;-72
2022/10/09 06:24:04;;;;;;;;;6.67;6.00;;;;;11.68;56.91;101678.31;4957285;28;45685;-74
2022/10/09 06:26:30;;;;;;;;;5.67;5.00;;;;;11.46;57.09;101636.63;4957487;28;45253;-71
2022/10/09 06:28:57;;;;;;;;;4.00;4.00;;;;;11.47;56.76;101632.16;4957225;28;45288;-72
2022/10/09 06:31:25;;;;;;;;;7.00;5.67;;;;;10.36;56.89;101432.06;4957749;28;45477;-72
2022/10/09 06:33:52;;;;;;;;;6.00;5.00;;;;;11.76;56.86;101653.66;4956915;28;46720;-74
2022/10/09 06:36:21;;;;;;;;;3.00;3.00;;;;;11.21;56.31;101567.75;4971212;28;45994;-73
2022/10/09 06:38:47;;;;;;;;;5.33;5.00;;;;;11.79;56.83;101664.94;4969309;28;45517;-72
2022/10/09 06:41:15;;;;;;;;;5.00;5.00;;;;;11.51;56.47;101628.25;4973050;28;45429;-75
2022/10/09 06:43:41;;;;;;;;;5.33;5.00;;;;;11.75;56.30;101658.16;4960472;28;45715;-72
2022/10/09 06:46:10;;;;;;;;;5.00;4.67;;;;;11.85;56.61;101674.25;4970694;28;46035;-72
2022/10/09 06:48:37;;;;;;;;;5.67;4.67;;;;;11.81;56.80;101671.00;4962323;28;45311;-72
2022/10/09 06:51:05;;;;;;;;;5.00;5.00;;;;;11.90;56.25;101671.19;4962773;28;45287;-72
2022/10/09 06:53:34;;;;;;;;;4.00;4.00;;;;;9.64;56.15;101318.38;4961342;28;46265;-74
2022/10/09 06:55:59;;;;;;;;;5.00;4.00;;;;;11.95;56.28;101668.97;4959159;28;45994;-72
2022/10/09 06:58:24;;;;;;;;;5.67;5.33;;;;;11.57;55.92;101595.78;4960174;28;45172;-71
2022/10/09 07:01:01;;;;;;;;;6.33;5.00;;;;;11.97;55.44;101643.88;4960162;28;45590;-73
2022/10/09 07:03:27;;;;;;;;;7.00;4.67;;;;;12.02;55.47;101660.34;4961593;28;45925;-74
2022/10/09 07:05:53;;;;;;;;;9.00;5.33;;;;;12.05;55.44;101669.91;4960347;28;58751;-74
2022/10/09 07:08:19;;;;;;;;;4.00;4.00;;;;;12.02;56.28;101664.84;4960673;28;45473;-72
2022/10/09 07:10:44;;;;;;;;;5.00;5.00;;;;;11.91;55.85;101619.59;4961050;28;45300;-74
2022/10/09 07:13:09;;;;;;;;;10.33;7.33;;;;;12.90;53.94;101605.53;4958728;28;48595;-72
2022/10/09 07:15:35;;;;;;;;;8.00;6.67;;;;;14.30;50.96;101644.09;4959569;28;59188;-72
2022/10/09 07:18:02;;;;;;;;;5.00;5.00;;;;;14.96;48.88;101588.69;4959132;28;45575;-74
2022/10/09 07:20:27;;;;;;;;;5.67;4.33;;;;;15.85;46.81;101632.41;4959400;28;45554;-75
2022/10/09 07:22:53;;;;;;;;;5.67;4.00;;;;;16.18;44.97;101638.78;4958894;28;47541;-71
2022/10/09 07:25:18;;;;;;;;;3.00;3.00;;;;;16.91;43.86;101641.84;4960380;28;45406;-74
2022/10/09 07:27:43;;;;;;;;;10.33;5.00;;;;;17.36;43.21;101602.13;4975559;28;46412;-70
2022/10/09 07:30:10;;;;;;;;;5.00;5.00;;;;;18.50;41.42;101635.94;4960730;28;45577;-73
2022/10/09 07:32:35;;;;;;;;;7.67;5.33;;;;;18.87;39.41;101567.09;4967541;28;47576;-74
2022/10/09 07:35:00;;;;;;;;;5.00;4.00;;;;;20.01;37.83;101631.72;4960030;28;46136;-73
2022/10/09 07:37:26;;;;;;;;;6.00;6.00;;;;;20.39;37.12;101628.97;4945163;28;45540;-74
2022/10/09 07:39:51;;;;;;;;;5.33;5.33;;;;;20.74;36.74;101621.97;4960351;28;45457;-73
2022/10/09 07:42:16;;;;;;;;;8.00;5.00;;;;;21.04;35.37;101574.09;4958617;28;48503;-74
2022/10/09 07:44:42;;;;;;;;;8.67;6.00;;;;;21.85;34.63;101631.44;4958724;28;45616;-72
2022/10/09 07:47:07;;;;;;;;;8.33;6.00;;;;;21.46;34.79;101611.13;4960028;28;45766;-75
2022/10/09 07:49:32;;;;;;;;;5.00;4.00;;;;;21.79;34.45;101637.63;4960059;28;45617;-74
2022/10/09 07:51:58;;;;;;;;;12.00;10.00;;;;;21.77;33.73;101585.56;4958004;28;45387;-76
2022/10/09 07:54:23;;;;;;;;;7.00;6.00;;;;;22.30;33.55;101623.84;4959080;28;45507;-75
2022/10/09 07:56:48;;;;;;;;;14.00;11.33;;;;;22.16;32.96;101544.38;4942640;28;45422;-74
2022/10/09 07:59:15;;;;;;;;;7.00;5.00;;;;;22.77;32.43;101566.94;4960735;28;45361;-74
2022/10/09 08:01:41;;;;;;;;;6.67;5.33;;;;;23.69;31.65;101606.16;4959961;28;46378;-72
2022/10/09 08:04:07;;;;;;;;;9.00;6.67;;;;;24.34;30.64;101615.25;4959474;28;45363;-74
2022/10/09 08:06:33;;;;;;;;;6.33;6.00;;;;;24.81;29.75;101591.41;4960669;28;45355;-73
2022/10/09 08:09:00;;;;;;;;;8.00;8.00;;;;;25.50;28.89;101614.25;4960636;28;45283;-73
2022/10/09 08:11:27;;;;;;;;;9.00;9.00;;;;;25.64;28.52;101605.75;4961380;28;46364;-75
2022/10/09 08:13:54;;;;;;;;;6.67;6.67;;;;;25.36;28.46;101594.44;4959629;28;45540;-72
2022/10/09 08:16:21;;;;;;;;;9.00;7.67;;;;;25.26;28.57;101605.84;4960253;28;45588;-74
2022/10/09 08:18:47;;;;;;;;;19.33;14.67;;;;;25.33;28.45;101601.16;4960436;28;45332;-73
2022/10/09 08:21:17;;;;;;;;;8.00;6.33;;;;;25.44;27.96;101564.25;4959282;28;47034;-75
2022/10/09 08:23:43;;;;;;;;;10.33;8.33;;;;;25.88;27.36;101554.22;4949519;28;45494;-74
2022/10/09 08:26:17;;;;;;;;;7.67;5.00;;;;;26.33;26.86;101585.56;4952054;28;45453;-75
2022/10/09 08:28:43;;;;;;;;;7.00;6.33;;;;;25.97;26.46;101496.47;4959389;28;45453;-75
2022/10/09 08:31:14;;;;;;;;;7.67;7.00;;;;;26.12;27.46;101598.81;4958785;28;45348;-74
2022/10/09 08:33:40;;;;;;;;;6.00;6.00;;;;;25.85;27.96;101587.38;4959080;28;45373;-75
2022/10/09 08:36:07;;;;;;;;;11.33;6.00;;;;;25.73;27.71;101600.88;4959244;28;45430;-73
2022/10/09 08:38:34;;;;;;;;;7.67;6.00;;;;;25.46;27.86;101578.47;4959887;28;45560;-71
2022/10/09 08:41:04;;;;;;;;;8.67;8.67;;;;;25.03;28.35;101562.88;4971578;28;49053;-71
2022/10/09 08:43:33;;;;;;;;;8.00;8.00;;;;;24.88;28.84;101584.91;4959230;28;45230;-74
2022/10/09 08:46:05;;;;;;;;;9.00;9.00;;;;;24.29;29.36;101536.25;4959368;28;45374;-75
2022/10/09 08:48:38;;;;;;;;;8.00;8.00;;;;;24.31;29.68;101546.91;4959081;28;45243;-74
2022/10/09 08:51:08;;;;;;;;;9.33;9.33;;;;;24.04;29.59;101529.84;4959050;28;45567;-75
2022/10/09 08:53:49;;;;;;;;;9.33;9.33;;;;;23.97;30.08;101525.25;4964686;28;45646;-74
2022/10/09 08:56:14;;;;;;;;;7.33;7.33;;;;;24.10;29.96;101572.44;4964250;28;45280;-73
2022/10/09 08:58:42;;;;;;;;;9.00;9.00;;;;;23.70;30.44;101569.81;4959756;28;45480;-73
2022/10/09 09:01:17;;;;;;;;;11.33;9.00;;;;;23.58;31.69;101569.59;4958955;28;46726;-73
2022/10/09 09:04:06;;;;;;;;;10.00;9.33;;;;;23.36;31.19;101560.78;4959482;28;45507;-74
2022/10/09 09:06:51;;;;;;;;;10.67;7.00;;;;;23.29;31.61;101553.72;4961018;28;45567;-77
2022/10/09 09:09:40;;;;;;;;;10.00;9.67;;;;;23.25;31.32;101552.47;4960997;28;45450;-73
2022/10/09 09:12:19;;;;;;;;;10.33;8.00;;;;;23.51;31.19;101554.34;4960137;28;45548;-74
2022/10/09 09:15:08;;;;;;;;;11.67;10.67;;;;;23.50;31.04;101518.22;4959052;28;45414;-74
2022/10/09 09:18:11;;;;;;;;;10.00;7.33;;;;;24.14;30.83;101535.66;4958871;28;45684;-76
2022/10/09 09:21:03;;;;;;;;;11.67;10.00;;;;;24.63;29.81;101534.19;4955726;28;45558;-76
2022/10/09 09:23:37;;;;;;;;;12.33;9.00;;;;;24.89;29.53;101506.84;4954923;28;48654;-73
2022/10/09 09:26:11;;;;;;;;;7.00;7.00;;;;;24.67;29.10;101424.81;4943894;28;45490;-73
2022/10/09 09:28:38;;;;;;;;;8.00;7.33;;;;;24.64;28.47;101416.25;4941343;28;45493;-75
2022/10/09 09:31:23;;;;;;;;;7.00;5.00;;;;;25.13;29.01;101524.28;4939111;28;45402;-73
2022/10/09 09:33:57;;;;;;;;;8.00;5.33;;;;;24.74;29.65;101519.91;4939531;28;46677;-73
2022/10/09 09:36:27;;;;;;;;;9.00;5.67;;;;;24.13;30.57;101469.59;4947511;28;45563;-76
2022/10/09 09:38:52;;;;;;;;;8.67;8.00;;;;;24.09;30.91;101483.84;4939900;28;45459;-74
2022/10/09 09:41:17;;;;;;;;;6.00;6.00;;;;;23.74;31.00;101522.16;4939020;28;45501;-74
2022/10/09 09:43:43;;;;;;;;;7.00;4.33;;;;;22.98;32.06;101475.63;4939052;28;45549;-72
2022/10/09 09:46:16;;;;;;;;;5.00;4.00;;;;;22.56;33.45;101493.91;4938425;28;45259;-75
2022/10/09 09:48:46;;;;;;;;;6.00;5.00;;;;;20.19;33.97;101183.19;4940090;28;45471;-74
2022/10/09 09:51:30;;;;;;;;;5.00;5.00;;;;;21.63;35.20;101503.44;4939771;28;45529;-75
2022/10/09 09:53:57;;;;;;;;;5.33;5.00;;;;;21.21;35.60;101496.22;4938765;28;46505;-74
2022/10/09 09:56:40;;;;;;;;;7.67;4.00;;;;;20.99;36.35;101500.81;4953096;28;46019;-74
2022/10/09 09:59:06;;;;;;;;;5.00;5.00;;;;;20.69;36.73;101505.50;4938459;28;45242;-74
2022/10/09 10:01:33;;;;;;;;;3.67;3.67;;;;;20.05;37.34;101465.69;4953267;28;45648;-75
2022/10/09 10:04:02;;;;;;;;;7.00;7.00;;;;;18.97;38.39;101319.78;4938152;28;45570;-74
2022/10/09 10:06:34;;;;;;;;;8.67;7.00;;;;;19.68;38.45;101472.03;4938198;28;45417;-74
2022/10/09 10:09:11;;;;;;;;;5.00;5.00;;;;;19.42;39.85;101485.97;4939653;28;45420;-75
2022/10/09 10:11:43;;;;;;;;;8.33;7.00;;;;;18.94;40.23;101422.53;4939969;28;45485;-73
2022/10/09 10:14:13;;;;;;;;;3.33;3.33;;;;;19.08;40.21;101472.13;4954160;28;48684;-76
2022/10/09 10:16:40;;;;;;;;;6.00;6.00;;;;;18.80;40.80;101453.81;4939824;28;45506;-74
2022/10/09 10:19:06;;;;;;;;;5.33;4.33;;;;;18.64;41.49;101459.34;4942173;28;45437;-76
2022/10/09 10:21:47;;;;;;;;;5.00;5.00;;;;;18.36;42.10;101450.88;4945245;28;45559;-73
2022/10/09 10:24:20;;;;;;;;;5.67;4.67;;;;;18.35;42.50;101454.59;4955269;28;46308;-74
2022/10/09 10:26:52;;;;;;;;;6.00;6.00;;;;;18.14;42.70;101438.22;4961335;28;45294;-73
2022/10/09 10:29:22;;;;;;;;;5.00;4.67;;;;;18.17;42.86;101462.09;4959901;28;45516;-73
2022/10/09 10:32:09;;;;;;;;;7.33;4.67;;;;;18.08;43.28;101447.03;4959899;28;45405;-75
2022/10/09 10:34:58;;;;;;;;;2.67;2.67;;;;;17.97;43.34;101448.22;4961648;28;46627;-74
2022/10/09 10:37:29;;;;;;;;;5.67;4.67;;;;;17.99;43.49;101440.81;4955958;28;45395;-74
2022/10/09 10:40:15;;;;;;;;;4.67;4.67;;;;;17.98;43.80;101446.38;4961899;28;45522;-74
2022/10/09 10:42:52;;;;;;;;;4.00;4.00;;;;;17.80;44.26;101442.06;4961061;28;45281;-75
2022/10/09 10:45:24;;;;;;;;;4.67;4.67;;;;;17.71;44.11;101435.06;4953317;28;47124;-74
2022/10/09 10:47:54;;;;;;;;;9.00;5.00;;;;;17.49;44.56;101387.38;4961637;28;45488;-75
2022/10/09 10:50:20;;;;;;;;;5.00;5.00;;;;;17.69;44.76;101426.34;4955212;28;45431;-73
2022/10/09 10:52:57;;;;;;;;;4.00;3.00;;;;;17.52;44.88;101397.78;4963462;28;45502;-74
2022/10/09 10:55:43;;;;;;;;;6.00;6.00;;;;;17.63;44.96;101417.09;4963694;28;45527;-73
2022/10/09 10:58:29;;;;;;;;;3.67;3.67;;;;;16.99;45.19;101295.31;4961020;28;45633;-72
2022/10/09 11:01:14;;;;;;;;;5.00;3.67;;;;;17.69;45.19;101410.19;4972478;28;45312;-73
2022/10/09 11:03:47;;;;;;;;;8.67;8.67;;;;;17.61;45.09;101380.59;4957773;28;46783;-73
2022/10/09 11:06:23;;;;;;;;;4.00;4.00;;;;;17.09;45.05;101305.88;4960592;28;46238;-72
2022/10/09 11:08:55;;;;;;;;;5.67;5.67;;;;;17.70;45.03;101393.06;4961264;28;45386;-74
2022/10/09 11:11:32;;;;;;;;;5.33;4.00;;;;;17.67;45.40;101388.00;4959551;28;45333;-74
2022/10/09 11:14:06;;;;;;;;;4.00;4.00;;;;;17.59;45.52;101399.59;4959911;28;45287;-75
2022/10/09 11:16:59;;;;;;;;;4.00;4.00;;;;;17.58;45.55;101380.97;4975019;28;47280;-73
2022/10/09 11:19:46;;;;;;;;;9.00;6.33;;;;;17.61;45.69;101377.91;4961368;28;45652;-73
2022/10/09 11:22:44;;;;;;;;;6.00;6.00;;;;;17.65;45.85;101365.81;4961446;28;45440;-74
2022/10/09 11:25:16;;;;;;;;;6.00;5.00;;;;;17.69;45.66;101369.03;4946756;28;45387;-75
2022/10/09 11:28:01;;;;;;;;;2.67;2.00;;;;;17.70;45.68;101363.47;4959751;28;46250;-73
2022/10/09 11:30:31;;;;;;;;;3.33;3.33;;;;;17.19;45.84;101284.19;4967122;28;45700;-75
2022/10/09 11:33:21;;;;;;;;;3.00;3.00;;;;;17.45;45.67;101321.56;4960458;28;45793;-74
2022/10/09 11:35:55;;;;;;;;;4.00;4.00;;;;;17.84;45.54;101353.81;4960227;28;45600;-73
2022/10/09 11:38:43;;;;;;;;;4.33;4.33;;;;;17.54;45.45;101288.22;4959843;28;46514;-73